Time;durP1;ratioP1;P1;durP2;ratioP2;P2;SDS_P1;SDS_P2;PMS_P1;PMS_P2;Temp;Humidity;BMP_temperature;BMP_pressure;BME280_temperature;BME280_humidity;BME280_pressure;Samples;Min_cycle;Max_cycle;Signal;HPM_P1;HPM_P2
2022/07/18 00:01:32;;;;;;;3.15;2.10;;;24.60;42.70;;;;;;5073532;28;20033;-80
2022/07/18 00:03:59;;;;;;;3.25;1.80;;;24.60;43.40;;;;;;5070915;28;20381;-80
2022/07/18 00:06:25;;;;;;;3.35;1.95;;;24.50;42.80;;;;;;5067011;28;20116;-80
2022/07/18 00:08:50;;;;;;;2.63;1.83;;;24.50;42.80;;;;;;5067173;28;20032;-81
2022/07/18 00:11:16;;;;;;;3.05;2.00;;;24.40;42.80;;;;;;5047493;28;20029;-83
2022/07/18 00:13:42;;;;;;;3.45;2.22;;;24.40;42.90;;;;;;5073901;28;20488;-81
2022/07/18 00:16:08;;;;;;;2.85;1.90;;;24.40;42.90;;;;;;5073818;28;20025;-81
2022/07/18 00:18:33;;;;;;;3.63;2.00;;;24.30;43.00;;;;;;5068806;28;20074;-81
2022/07/18 00:20:59;;;;;;;2.80;1.90;;;24.40;43.10;;;;;;5062431;28;20107;-81
2022/07/18 00:23:25;;;;;;;2.45;1.50;;;24.30;43.00;;;;;;5070075;28;20020;-81
2022/07/18 00:25:50;;;;;;;2.38;1.65;;;24.20;43.10;;;;;;5074028;28;20035;-80
2022/07/18 00:28:16;;;;;;;2.90;1.77;;;24.20;43.10;;;;;;5054864;28;20025;-80
2022/07/18 00:30:42;;;;;;;2.55;1.77;;;24.20;43.10;;;;;;5050613;28;20032;-80
2022/07/18 00:33:08;;;;;;;3.08;2.00;;;24.20;43.20;;;;;;5069254;28;20028;-81
2022/07/18 00:35:34;;;;;;;3.70;2.10;;;24.20;43.30;;;;;;5069646;28;20039;-80
2022/07/18 00:38:01;;;;;;;2.90;1.83;;;24.10;43.20;;;;;;5067872;28;20460;-80
2022/07/18 00:40:28;;;;;;;4.18;2.00;;;24.10;43.30;;;;;;5069449;28;20102;-80
2022/07/18 00:42:54;;;;;;;3.25;1.90;;;24.00;43.30;;;;;;5072764;28;20415;-80
2022/07/18 00:45:20;;;;;;;3.17;2.10;;;24.00;43.40;;;;;;5070789;28;20043;-80
2022/07/18 00:47:45;;;;;;;2.92;1.83;;;24.00;43.40;;;;;;5065228;28;20046;-81
2022/07/18 00:50:11;;;;;;;2.40;1.88;;;24.00;43.40;;;;;;5069890;28;20040;-82
2022/07/18 00:52:38;;;;;;;3.00;1.90;;;23.90;43.40;;;;;;5047315;28;20029;-81
2022/07/18 00:55:05;;;;;;;3.15;1.88;;;23.90;43.50;;;;;;5050451;28;20025;-81
2022/07/18 00:57:31;;;;;;;2.80;2.00;;;23.80;43.50;;;;;;5083772;28;20403;-80
2022/07/18 01:02:41;;;;;;;2.78;1.92;;;23.80;43.60;;;;;;5069950;28;20062;-82
2022/07/18 01:05:08;;;;;;;2.53;1.90;;;23.80;43.60;;;;;;5063267;28;20032;-80
2022/07/18 01:07:36;;;;;;;3.38;1.88;;;23.70;43.70;;;;;;5070033;28;20457;-80
2022/07/18 01:10:04;;;;;;;2.53;1.67;;;23.60;43.70;;;;;;5071783;28;20036;-80
2022/07/18 01:12:30;;;;;;;2.90;1.92;;;23.60;43.80;;;;;;5072621;28;20783;-80
2022/07/18 01:14:57;;;;;;;2.60;1.77;;;23.60;43.90;;;;;;5074810;28;20035;-80
2022/07/18 01:17:23;;;;;;;3.20;1.80;;;23.60;43.90;;;;;;5088616;28;20035;-81
2022/07/18 01:19:49;;;;;;;2.50;1.85;;;23.50;43.90;;;;;;5058224;28;20533;-82
2022/07/18 01:22:17;;;;;;;4.10;2.10;;;23.50;44.00;;;;;;5063336;28;20039;-80
2022/07/18 01:24:43;;;;;;;2.70;1.83;;;23.50;44.00;;;;;;5069684;28;20037;-80
2022/07/18 01:27:14;;;;;;;2.70;2.00;;;23.40;44.00;;;;;;5061166;28;20040;-81
2022/07/18 01:29:40;;;;;;;2.95;2.00;;;23.40;44.20;;;;;;5069540;28;20025;-81
2022/07/18 01:32:07;;;;;;;3.17;1.92;;;23.40;44.10;;;;;;5058121;28;20032;-81
2022/07/18 01:34:33;;;;;;;3.63;2.22;;;23.30;44.20;;;;;;5071777;28;20036;-81
2022/07/18 01:37:00;;;;;;;3.20;2.10;;;23.30;44.20;;;;;;5067761;28;20107;-82
2022/07/18 01:39:26;;;;;;;3.20;2.00;;;23.30;44.30;;;;;;5070681;28;20463;-80
2022/07/18 01:42:05;;;;;;;3.40;2.20;;;23.30;44.30;;;;;;5073446;28;20116;-80
2022/07/18 01:44:32;;;;;;;2.90;1.90;;;23.20;44.40;;;;;;5070814;28;20483;-81
2022/07/18 01:46:58;;;;;;;3.25;1.90;;;23.20;44.40;;;;;;5056960;28;20392;-80
2022/07/18 01:49:24;;;;;;;2.55;1.80;;;23.10;44.40;;;;;;5071678;28;20120;-83
2022/07/18 01:51:53;;;;;;;3.25;2.03;;;23.10;44.40;;;;;;5073151;28;20167;-83
2022/07/18 01:54:28;;;;;;;3.33;1.88;;;23.10;45.20;;;;;;5070582;28;20052;-81
2022/07/18 01:56:55;;;;;;;2.95;1.95;;;23.10;44.60;;;;;;5070273;28;20020;-84
2022/07/18 01:59:22;;;;;;;2.65;1.88;;;23.00;44.50;;;;;;5058652;28;20052;-81
2022/07/18 02:01:47;;;;;;;3.38;2.10;;;23.00;44.60;;;;;;5073707;28;20415;-81
2022/07/18 02:04:13;;;;;;;2.47;1.85;;;22.90;44.60;;;;;;5067654;28;20037;-84
2022/07/18 02:06:39;;;;;;;2.75;1.88;;;22.90;44.60;;;;;;5075013;28;20024;-81
2022/07/18 02:09:06;;;;;;;3.22;2.10;;;22.90;44.70;;;;;;5091071;28;20153;-82
2022/07/18 02:11:33;;;;;;;2.22;1.70;;;22.90;44.80;;;;;;5073571;28;20369;-81
2022/07/18 02:13:58;;;;;;;3.10;2.03;;;22.80;44.70;;;;;;5072330;28;20033;-81
2022/07/18 02:16:24;;;;;;;2.70;1.70;;;22.80;44.80;;;;;;5055862;28;20039;-82
2022/07/18 02:18:50;;;;;;;3.25;2.20;;;22.80;44.80;;;;;;5057365;28;20039;-84
2022/07/18 02:21:16;;;;;;;2.63;1.90;;;22.80;44.90;;;;;;5049884;28;20040;-81
2022/07/18 02:23:43;;;;;;;2.35;1.80;;;22.70;44.90;;;;;;5076396;28;20036;-85
2022/07/18 02:26:09;;;;;;;2.60;1.80;;;22.70;44.90;;;;;;5056931;28;20035;-80
2022/07/18 02:28:36;;;;;;;3.83;1.88;;;22.70;45.00;;;;;;5067396;28;20029;-80
2022/07/18 02:31:02;;;;;;;2.80;1.80;;;22.60;45.00;;;;;;5082366;28;20048;-80
2022/07/18 02:33:28;;;;;;;2.40;1.70;;;22.60;45.00;;;;;;5050076;28;20028;-81
2022/07/18 02:35:54;;;;;;;3.03;1.90;;;22.60;45.10;;;;;;5068805;28;20415;-83
2022/07/18 02:38:19;;;;;;;3.10;2.10;;;22.60;45.10;;;;;;5069890;28;20067;-80
2022/07/18 02:40:45;;;;;;;2.75;2.03;;;22.60;45.10;;;;;;5073173;28;20036;-80
2022/07/18 02:43:11;;;;;;;2.58;1.90;;;22.50;45.10;;;;;;5073160;28;20025;-80
2022/07/18 02:45:37;;;;;;;2.97;2.00;;;22.50;45.20;;;;;;5073576;28;20028;-80
2022/07/18 02:48:02;;;;;;;2.88;1.85;;;22.50;45.30;;;;;;5073856;28;20060;-80
2022/07/18 02:50:28;;;;;;;3.28;2.25;;;22.50;45.30;;;;;;5070946;28;20114;-80
2022/07/18 02:52:56;;;;;;;3.08;2.05;;;22.40;45.30;;;;;;5067358;28;20052;-80
2022/07/18 02:55:22;;;;;;;2.80;2.00;;;22.40;45.40;;;;;;5076036;28;20521;-80
2022/07/18 02:57:49;;;;;;;2.90;1.90;;;22.40;45.40;;;;;;5082599;28;20024;-80
2022/07/18 03:00:16;;;;;;;2.55;1.85;;;22.30;45.40;;;;;;5079532;28;20037;-82
2022/07/18 03:02:43;;;;;;;2.35;1.75;;;22.30;45.40;;;;;;5074006;28;20040;-82
2022/07/18 03:05:09;;;;;;;2.55;1.60;;;22.30;45.50;;;;;;5088059;28;20070;-81
2022/07/18 03:07:35;;;;;;;3.28;2.08;;;22.20;45.40;;;;;;5074227;28;20028;-80
2022/07/18 03:10:02;;;;;;;3.45;2.00;;;22.20;45.50;;;;;;5071927;28;20515;-81
2022/07/18 03:12:27;;;;;;;3.00;2.00;;;22.20;45.50;;;;;;5072010;28;20031;-80
2022/07/18 03:14:53;;;;;;;3.22;1.88;;;22.20;45.60;;;;;;5055864;28;20032;-81
2022/07/18 03:17:19;;;;;;;2.25;1.70;;;22.20;45.60;;;;;;5071566;28;20051;-87
2022/07/18 03:19:44;;;;;;;2.60;2.00;;;22.10;45.60;;;;;;5076286;28;20100;-86
2022/07/18 03:22:10;;;;;;;4.07;2.38;;;22.10;45.70;;;;;;5070002;28;20052;-80
2022/07/18 03:24:36;;;;;;;3.13;2.00;;;22.10;45.70;;;;;;5056833;28;20038;-81
2022/07/18 03:27:01;;;;;;;3.00;1.90;;;22.00;45.70;;;;;;5055472;28;20032;-80
2022/07/18 03:29:27;;;;;;;2.88;1.80;;;22.00;45.80;;;;;;5069780;28;20051;-81
2022/07/18 03:31:53;;;;;;;3.60;2.00;;;22.00;45.80;;;;;;5062669;28;20028;-80
2022/07/18 03:34:19;;;;;;;3.03;2.00;;;22.00;45.90;;;;;;5051240;28;20032;-79
2022/07/18 03:36:45;;;;;;;2.80;1.90;;;21.90;45.90;;;;;;5053860;28;20579;-81
2022/07/18 03:39:12;;;;;;;3.50;2.15;;;21.90;45.90;;;;;;5071853;28;20083;-79
2022/07/18 03:41:38;;;;;;;2.95;2.17;;;21.90;46.00;;;;;;5053569;28;20402;-80
2022/07/18 03:44:05;;;;;;;2.83;1.70;;;21.90;46.00;;;;;;5069133;28;20472;-80
2022/07/18 03:46:31;;;;;;;2.42;1.73;;;21.80;46.00;;;;;;5070968;28;20036;-80
2022/07/18 03:48:57;;;;;;;2.50;1.90;;;21.80;46.10;;;;;;5062702;28;20036;-81
2022/07/18 03:51:23;;;;;;;3.08;2.00;;;21.80;46.20;;;;;;5079419;28;20457;-80
2022/07/18 03:53:49;;;;;;;2.40;1.85;;;21.70;46.10;;;;;;5076610;28;20537;-79
2022/07/18 03:56:15;;;;;;;2.30;1.85;;;21.70;46.20;;;;;;5066875;28;20123;-80
2022/07/18 03:58:42;;;;;;;3.05;1.83;;;21.70;46.20;;;;;;5069351;28;20047;-81
2022/07/18 04:01:07;;;;;;;2.22;1.67;;;21.70;46.30;;;;;;5084671;28;20025;-79
2022/07/18 04:03:33;;;;;;;2.72;1.90;;;21.60;46.30;;;;;;5069605;28;20028;-81
2022/07/18 04:05:59;;;;;;;3.25;1.98;;;21.60;46.40;;;;;;5071737;28;20048;-81
2022/07/18 04:08:25;;;;;;;2.90;1.90;;;21.60;46.40;;;;;;5055060;28;20062;-80
2022/07/18 04:10:51;;;;;;;2.22;1.70;;;21.60;46.40;;;;;;5051739;28;20531;-79
2022/07/18 04:13:17;;;;;;;2.78;1.70;;;21.50;46.40;;;;;;5079728;28;20369;-80
2022/07/18 04:15:43;;;;;;;2.13;1.67;;;21.50;46.50;;;;;;5069519;28;20043;-83
2022/07/18 04:18:09;;;;;;;2.72;1.70;;;21.50;46.60;;;;;;5070304;28;20396;-80
2022/07/18 04:20:36;;;;;;;3.30;2.15;;;21.50;46.60;;;;;;5076303;28;20108;-79
2022/07/18 04:23:05;;;;;;;2.95;1.83;;;21.50;46.60;;;;;;5083121;28;20028;-80
2022/07/18 04:25:36;;;;;;;2.10;1.80;;;21.40;46.60;;;;;;5034766;28;20039;-79
2022/07/18 04:28:03;;;;;;;3.20;2.00;;;21.40;46.70;;;;;;5071907;28;20032;-82
2022/07/18 04:30:29;;;;;;;3.00;1.77;;;21.40;46.70;;;;;;5067838;28;20037;-83
2022/07/18 04:32:56;;;;;;;2.28;1.70;;;21.40;46.80;;;;;;5081967;28;20043;-82
2022/07/18 04:35:22;;;;;;;2.53;1.80;;;21.30;46.70;;;;;;5051615;28;20045;-81
2022/07/18 04:37:49;;;;;;;2.22;1.50;;;21.30;46.80;;;;;;5072205;28;20031;-82
2022/07/18 04:40:16;;;;;;;3.30;2.08;;;21.30;46.80;;;;;;5075240;28;20130;-83
2022/07/18 04:42:42;;;;;;;2.67;1.92;;;21.30;46.90;;;;;;5072748;28;20531;-82
2022/07/18 04:45:09;;;;;;;2.78;2.05;;;21.30;46.90;;;;;;5055371;28;20021;-82
2022/07/18 04:47:35;;;;;;;3.00;1.75;;;21.30;47.00;;;;;;5085095;28;20304;-81
2022/07/18 04:50:01;;;;;;;2.17;1.63;;;21.30;47.10;;;;;;5088102;28;20033;-82
2022/07/18 04:52:27;;;;;;;2.10;1.50;;;21.20;47.10;;;;;;5077457;28;20130;-82
2022/07/18 04:54:53;;;;;;;2.92;1.67;;;21.20;47.10;;;;;;5052745;28;20035;-82
2022/07/18 04:57:18;;;;;;;3.08;1.77;;;21.20;47.40;;;;;;5069930;28;20080;-83
2022/07/18 04:59:45;;;;;;;2.63;1.75;;;21.20;47.10;;;;;;5072818;28;20049;-83
2022/07/18 05:02:11;;;;;;;2.22;1.70;;;21.20;47.20;;;;;;5083140;28;20092;-81
2022/07/18 05:04:38;;;;;;;2.78;1.77;;;21.20;47.20;;;;;;5075725;28;20055;-83
2022/07/18 05:07:05;;;;;;;2.85;2.03;;;21.20;47.20;;;;;;5053503;28;20098;-84
2022/07/18 05:09:30;;;;;;;2.78;1.60;;;21.20;47.20;;;;;;5053797;28;20045;-82
2022/07/18 05:11:56;;;;;;;2.92;1.80;;;21.20;47.20;;;;;;5054838;28;20086;-86
2022/07/18 05:14:22;;;;;;;3.00;1.73;;;21.10;47.20;;;;;;5064025;28;20134;-81
2022/07/18 05:16:49;;;;;;;2.90;1.80;;;21.20;47.30;;;;;;5072965;28;20059;-84
2022/07/18 05:19:15;;;;;;;2.20;1.70;;;21.10;47.20;;;;;;5073468;28;20047;-80
2022/07/18 05:21:42;;;;;;;2.70;1.70;;;21.10;47.30;;;;;;5085143;28;20389;-82
2022/07/18 05:24:08;;;;;;;1.77;1.58;;;21.10;47.30;;;;;;5054780;28;20021;-80
2022/07/18 05:26:34;;;;;;;2.30;1.65;;;21.10;47.30;;;;;;5074371;28;20017;-84
2022/07/18 05:29:00;;;;;;;2.72;1.75;;;21.10;47.30;;;;;;5057549;28;20040;-83
2022/07/18 05:31:26;;;;;;;2.42;1.63;;;21.10;47.30;;;;;;5058329;28;20183;-83
2022/07/18 05:33:52;;;;;;;3.67;1.85;;;21.10;47.30;;;;;;5071986;28;20512;-84
2022/07/18 05:36:17;;;;;;;3.15;1.83;;;21.10;47.30;;;;;;5076811;28;20385;-84
2022/07/18 05:38:43;;;;;;;2.33;1.67;;;21.10;47.40;;;;;;5060411;28;20523;-83
2022/07/18 05:41:09;;;;;;;2.50;1.70;;;21.10;47.40;;;;;;5067987;28;20397;-83
2022/07/18 05:43:35;;;;;;;2.75;1.60;;;21.10;47.40;;;;;;5080233;28;20113;-84
2022/07/18 05:46:00;;;;;;;2.67;1.73;;;21.10;47.40;;;;;;5073935;28;20070;-84
2022/07/18 05:48:27;;;;;;;2.58;1.60;;;21.10;47.40;;;;;;5077583;28;20415;-83
2022/07/18 05:50:52;;;;;;;2.80;1.90;;;21.10;47.40;;;;;;5056946;28;20063;-84
2022/07/18 05:53:18;;;;;;;3.10;1.77;;;21.10;47.50;;;;;;5067501;28;20029;-84
2022/07/18 05:55:45;;;;;;;2.35;1.60;;;21.10;47.50;;;;;;5066803;28;20071;-84
2022/07/18 05:58:11;;;;;;;2.28;1.70;;;21.10;47.50;;;;;;5050470;28;20547;-82
2022/07/18 06:00:37;;;;;;;2.92;1.73;;;21.10;47.50;;;;;;5056263;28;20040;-82
2022/07/18 06:03:02;;;;;;;2.90;1.73;;;21.10;47.50;;;;;;5064964;28;20029;-81
2022/07/18 06:05:28;;;;;;;3.67;2.00;;;21.20;47.50;;;;;;5057609;28;20044;-81
2022/07/18 06:07:55;;;;;;;2.53;1.70;;;21.20;47.50;;;;;;5070533;28;20544;-81
2022/07/18 06:10:23;;;;;;;1.80;1.50;;;21.20;47.60;;;;;;5054664;28;20033;-81
2022/07/18 06:12:50;;;;;;;3.03;1.70;;;21.20;47.70;;;;;;5073386;28;20132;-81
2022/07/18 06:15:15;;;;;;;2.40;1.75;;;21.20;47.70;;;;;;5056617;28;20040;-82
2022/07/18 06:17:42;;;;;;;3.40;1.80;;;21.20;47.70;;;;;;5070149;28;20024;-80
2022/07/18 06:20:08;;;;;;;2.20;1.50;;;21.20;47.70;;;;;;5089364;28;20035;-81
2022/07/18 06:22:34;;;;;;;2.60;1.70;;;21.20;47.70;;;;;;5060756;28;20037;-81
2022/07/18 06:25:01;;;;;;;2.80;1.63;;;21.20;47.70;;;;;;5061253;28;20017;-81
2022/07/18 06:27:27;;;;;;;3.15;1.77;;;21.20;47.70;;;;;;5057631;28;20059;-82
2022/07/18 06:29:52;;;;;;;3.05;1.90;;;21.20;47.70;;;;;;5056568;28;20664;-80
2022/07/18 06:32:18;;;;;;;2.35;1.63;;;21.20;47.70;;;;;;5078795;28;20111;-81
2022/07/18 06:34:44;;;;;;;2.15;1.63;;;21.30;47.80;;;;;;5090132;28;20032;-81
2022/07/18 06:37:10;;;;;;;3.33;2.22;;;21.20;47.70;;;;;;5075482;28;20465;-83
2022/07/18 06:39:35;;;;;;;2.70;1.83;;;21.30;47.70;;;;;;5066674;28;20056;-81
2022/07/18 06:42:01;;;;;;;2.67;1.70;;;21.30;47.70;;;;;;5061556;28;20039;-81
2022/07/18 06:44:27;;;;;;;2.65;1.73;;;21.30;47.80;;;;;;5077586;28;20415;-84
2022/07/18 06:46:53;;;;;;;2.65;1.67;;;21.30;47.70;;;;;;5073923;28;20029;-81
2022/07/18 06:49:19;;;;;;;2.63;1.85;;;21.30;47.80;;;;;;5072860;28;20540;-81
2022/07/18 06:51:45;;;;;;;2.67;1.80;;;21.30;47.70;;;;;;5073279;28;20025;-81
2022/07/18 06:54:10;;;;;;;2.55;1.60;;;21.30;47.80;;;;;;5074411;28;20032;-82
2022/07/18 06:56:36;;;;;;;2.80;1.80;;;21.30;47.80;;;;;;5049416;28;20033;-81
2022/07/18 06:59:02;;;;;;;3.00;1.75;;;21.40;47.80;;;;;;5070158;28;20044;-79
2022/07/18 07:01:28;;;;;;;3.30;1.60;;;21.40;47.90;;;;;;5070004;28;20040;-79
2022/07/18 07:03:54;;;;;;;3.10;1.60;;;21.40;47.90;;;;;;5055613;28;20043;-79
2022/07/18 07:06:19;;;;;;;2.22;1.50;;;21.40;47.90;;;;;;5072899;28;20028;-78
2022/07/18 07:08:45;;;;;;;1.88;1.50;;;21.40;47.90;;;;;;5036111;28;20029;-78
2022/07/18 07:11:11;;;;;;;3.67;1.73;;;21.50;48.00;;;;;;5038626;28;20035;-79
2022/07/18 07:13:37;;;;;;;2.97;1.80;;;21.40;47.90;;;;;;5072387;28;20036;-85
2022/07/18 07:16:03;;;;;;;2.67;1.60;;;21.50;48.00;;;;;;5057862;28;20036;-79
2022/07/18 07:18:29;;;;;;;1.58;1.40;;;21.50;48.10;;;;;;5061807;28;20443;-78
2022/07/18 07:20:54;;;;;;;2.40;1.63;;;21.50;48.10;;;;;;5079436;28;20135;-78
2022/07/18 07:23:20;;;;;;;2.72;1.80;;;21.50;48.10;;;;;;5072203;28;20029;-79
2022/07/18 07:25:46;;;;;;;2.78;1.35;;;21.60;48.20;;;;;;5067732;28;20034;-78
2022/07/18 07:28:11;;;;;;;2.25;1.42;;;21.60;48.20;;;;;;5054664;28;20033;-80
2022/07/18 07:30:37;;;;;;;1.42;1.30;;;21.60;48.30;;;;;;5055491;28;20465;-83
2022/07/18 07:33:03;;;;;;;2.53;1.52;;;21.60;48.30;;;;;;5049707;28;20464;-78
2022/07/18 07:35:29;;;;;;;1.63;1.30;;;21.70;48.40;;;;;;5070671;28;20128;-79
2022/07/18 07:37:58;;;;;;;3.10;1.75;;;21.70;48.30;;;;;;5066480;28;20500;-78
2022/07/18 07:40:27;;;;;;;1.88;1.40;;;21.70;48.40;;;;;;5069437;28;20024;-79
2022/07/18 07:43:03;;;;;;;1.88;1.20;;;21.70;48.30;;;;;;5071489;28;20025;-79
2022/07/18 07:45:29;;;;;;;3.10;1.60;;;21.80;48.30;;;;;;5041655;28;20033;-79
2022/07/18 07:47:55;;;;;;;2.00;1.60;;;21.80;48.30;;;;;;5051699;28;20460;-78
2022/07/18 07:50:21;;;;;;;1.67;1.35;;;21.90;48.20;;;;;;5072513;28;20039;-78
2022/07/18 07:52:46;;;;;;;2.00;1.30;;;21.90;48.10;;;;;;5054165;28;20039;-79
2022/07/18 07:55:12;;;;;;;2.03;1.30;;;22.00;48.10;;;;;;5054782;28;20021;-84
2022/07/18 07:57:38;;;;;;;2.50;1.40;;;22.00;48.00;;;;;;5071224;28;20044;-78
2022/07/18 08:00:07;;;;;;;1.63;1.33;;;22.10;48.00;;;;;;5062572;28;20048;-79
2022/07/18 08:02:48;;;;;;;2.13;1.30;;;22.10;48.00;;;;;;5075551;28;20511;-78
2022/07/18 08:05:14;;;;;;;2.83;1.50;;;22.20;48.00;;;;;;5074766;28;20515;-81
2022/07/18 08:07:40;;;;;;;1.75;1.17;;;22.30;47.90;;;;;;5069170;28;20016;-85
2022/07/18 08:10:06;;;;;;;1.95;1.30;;;22.40;48.00;;;;;;5053373;28;20033;-79
2022/07/18 08:12:32;;;;;;;2.42;1.40;;;22.40;47.90;;;;;;5070832;28;20162;-78
2022/07/18 08:14:58;;;;;;;3.13;1.58;;;22.50;47.90;;;;;;5057866;28;20028;-78
2022/07/18 08:17:23;;;;;;;2.13;1.35;;;22.60;47.90;;;;;;5054470;28;20032;-79
2022/07/18 08:19:49;;;;;;;2.15;1.33;;;22.70;47.90;;;;;;5055440;28;20043;-82
2022/07/18 08:22:15;;;;;;;1.65;1.20;;;22.80;47.90;;;;;;5055447;28;20028;-85
2022/07/18 08:24:41;;;;;;;2.75;1.40;;;22.90;47.90;;;;;;5068145;28;20493;-82
2022/07/18 08:27:06;;;;;;;1.73;1.15;;;22.90;47.80;;;;;;5076682;28;20499;-82
2022/07/18 08:29:32;;;;;;;2.80;1.60;;;23.00;47.80;;;;;;5059486;28;20039;-85
2022/07/18 08:31:58;;;;;;;4.95;1.33;;;23.10;47.80;;;;;;5068458;28;20027;-84
2022/07/18 08:34:23;;;;;;;1.88;1.23;;;23.20;47.70;;;;;;5071583;28;20358;-83
2022/07/18 08:36:49;;;;;;;2.50;1.10;;;23.30;47.70;;;;;;5051523;28;20028;-84
2022/07/18 08:39:15;;;;;;;1.63;1.20;;;23.40;47.60;;;;;;5054524;28;20135;-83
2022/07/18 08:41:46;;;;;;;1.92;1.25;;;23.50;47.60;;;;;;5055172;28;20024;-83
2022/07/18 08:44:12;;;;;;;1.83;1.25;;;23.60;47.50;;;;;;5048746;28;20029;-83
2022/07/18 08:46:43;;;;;;;1.90;1.00;;;23.70;47.40;;;;;;5052624;28;20031;-83
2022/07/18 08:49:11;;;;;;;1.65;1.27;;;23.80;47.40;;;;;;5073792;28;20472;-83
2022/07/18 08:51:37;;;;;;;1.75;1.10;;;23.90;47.50;;;;;;5071958;28;20021;-84
2022/07/18 08:54:03;;;;;;;1.10;1.00;;;24.00;47.30;;;;;;5058015;28;20036;-86
2022/07/18 08:56:29;;;;;;;1.30;1.02;;;24.20;47.30;;;;;;5075067;28;20124;-84
2022/07/18 08:58:55;;;;;;;1.92;1.17;;;24.30;47.20;;;;;;5074106;28;20060;-84
2022/07/18 09:01:21;;;;;;;1.63;1.23;;;24.40;47.20;;;;;;5060660;28;21744;-81
2022/07/18 09:04:14;;;;;;;1.52;1.00;;;24.50;47.20;;;;;;5074558;28;20118;-83
2022/07/18 09:06:42;;;;;;;1.67;1.10;;;24.60;47.20;;;;;;5077809;28;20036;-80
2022/07/18 09:09:12;;;;;;;1.13;1.00;;;24.70;47.20;;;;;;5074483;28;20020;-82
2022/07/18 09:11:48;;;;;;;2.00;1.23;;;24.80;47.10;;;;;;5057231;28;20024;-87
2022/07/18 09:14:43;;;;;;;2.08;1.13;;;24.90;47.10;;;;;;5066216;28;20032;-88
2022/07/18 09:17:13;;;;;;;1.65;0.93;;;25.00;47.20;;;;;;5057242;28;20041;-87
2022/07/18 09:19:55;;;;;;;1.50;1.05;;;25.20;47.20;;;;;;5067685;28;20031;-86
2022/07/18 09:22:23;;;;;;;1.00;0.90;;;25.30;47.20;;;;;;5075160;28;20362;-87
2022/07/18 09:24:57;;;;;;;2.53;1.15;;;25.40;47.20;;;;;;5082868;28;20439;-87
2022/07/18 09:27:36;;;;;;;1.58;0.90;;;25.50;47.30;;;;;;5075182;28;20039;-86
2022/07/18 09:30:20;;;;;;;3.53;0.90;;;25.70;47.40;;;;;;5074397;28;20029;-86
2022/07/18 09:32:52;;;;;;;0.98;0.80;;;25.80;47.40;;;;;;5067906;28;20111;-87
2022/07/18 09:35:26;;;;;;;1.65;1.00;;;25.90;47.40;;;;;;5084645;28;20032;-85
2022/07/18 09:37:55;;;;;;;1.83;0.95;;;26.10;47.50;;;;;;5074316;28;20142;-86
2022/07/18 09:40:30;;;;;;;1.52;1.00;;;26.20;47.50;;;;;;5074540;28;20078;-86
2022/07/18 09:43:02;;;;;;;1.52;1.00;;;26.20;47.40;;;;;;5063854;28;20058;-86
2022/07/18 09:45:31;;;;;;;1.48;0.98;;;26.40;47.50;;;;;;5078178;28;20048;-86
2022/07/18 09:47:59;;;;;;;0.88;0.85;;;26.50;47.50;;;;;;5075906;28;20472;-85
2022/07/18 09:50:40;;;;;;;1.45;1.00;;;26.60;47.50;;;;;;5075187;28;20036;-85
2022/07/18 09:53:08;;;;;;;1.90;1.20;;;26.70;47.60;;;;;;5066842;28;20037;-87
2022/07/18 09:55:35;;;;;;;1.23;0.90;;;26.90;47.60;;;;;;5097196;28;20476;-86
2022/07/18 09:58:07;;;;;;;1.45;1.10;;;27.00;47.60;;;;;;5076743;28;20042;-85
2022/07/18 10:00:36;;;;;;;1.20;0.98;;;27.10;47.60;;;;;;5076116;28;20091;-87
2022/07/18 10:03:05;;;;;;;3.08;1.00;;;27.20;47.60;;;;;;5067922;28;20040;-86
2022/07/18 10:05:39;;;;;;;1.63;1.10;;;27.30;47.60;;;;;;5076104;28;20035;-85
2022/07/18 10:08:25;;;;;;;1.05;0.90;;;27.40;47.60;;;;;;5054142;28;20089;-86
2022/07/18 10:10:53;;;;;;;1.27;0.80;;;27.50;47.60;;;;;;5075635;28;20122;-86
2022/07/18 10:13:20;;;;;;;0.80;0.80;;;27.60;47.50;;;;;;5056675;28;20083;-85
2022/07/18 10:15:48;;;;;;;0.80;0.80;;;27.70;47.50;;;;;;5057892;28;20037;-85
2022/07/18 10:18:20;;;;;;;1.13;0.85;;;27.80;47.40;;;;;;5056229;28;20082;-84
2022/07/18 10:21:06;;;;;;;1.48;1.30;;;27.90;47.40;;;;;;5057027;28;20033;-86
2022/07/18 10:23:38;;;;;;;1.33;0.93;;;28.00;47.40;;;;;;5071675;28;20115;-84
2022/07/18 10:26:13;;;;;;;1.45;0.95;;;28.00;47.40;;;;;;5076843;28;20035;-85
2022/07/18 10:28:54;;;;;;;1.77;1.10;;;28.10;47.40;;;;;;5055051;28;20086;-84
2022/07/18 10:31:22;;;;;;;0.93;0.80;;;28.20;47.50;;;;;;5068861;28;20032;-83
2022/07/18 10:33:48;;;;;;;1.40;0.95;;;28.20;47.40;;;;;;5072906;28;20028;-84
2022/07/18 10:36:16;;;;;;;1.08;0.90;;;28.30;47.40;;;;;;5072745;28;20595;-87
2022/07/18 10:39:07;;;;;;;1.88;1.15;;;28.30;47.40;;;;;;5086266;28;20032;-86
2022/07/18 10:41:38;;;;;;;0.90;0.80;;;28.40;47.50;;;;;;5079198;28;20067;-86
2022/07/18 10:44:30;;;;;;;1.55;0.90;;;28.40;47.40;;;;;;5077914;28;20024;-80
2022/07/18 10:49:57;;;;;;;2.20;1.00;;;28.50;47.50;;;;;;5072680;28;20036;-84
2022/07/18 10:52:26;;;;;;;0.90;0.80;;;28.60;47.60;;;;;;5079127;28;20016;-84
2022/07/18 10:55:16;;;;;;;1.02;0.90;;;28.60;47.60;;;;;;5078861;28;20030;-84
2022/07/18 10:57:49;;;;;;;0.93;0.90;;;28.70;47.60;;;;;;5089493;28;20017;-84
2022/07/18 11:00:22;;;;;;;1.00;0.90;;;28.70;47.60;;;;;;5090912;28;20049;-85
2022/07/18 11:03:02;;;;;;;0.65;0.65;;;28.80;47.60;;;;;;5070487;28;20037;-84
2022/07/18 11:05:28;;;;;;;0.80;0.80;;;28.80;47.60;;;;;;5065893;28;20047;-85
2022/07/18 11:08:03;;;;;;;1.58;1.08;;;28.90;47.60;;;;;;5071256;28;20016;-85
2022/07/18 11:10:45;;;;;;;1.33;1.00;;;28.90;47.60;;;;;;5073625;28;20055;-88
2022/07/18 11:13:27;;;;;;;1.30;0.88;;;29.00;47.70;;;;;;5070709;28;20028;-83
2022/07/18 11:16:12;;;;;;;0.95;0.80;;;29.10;47.70;;;;;;5077145;28;20024;-88
2022/07/18 11:18:44;;;;;;;0.90;0.80;;;29.20;47.80;;;;;;5081050;28;20171;-85
2022/07/18 11:21:24;;;;;;;0.85;0.60;;;29.30;47.80;;;;;;5065847;28;20072;-83
2022/07/18 11:24:11;;;;;;;1.42;1.02;;;29.30;47.90;;;;;;5088784;28;20028;-84
2022/07/18 11:26:47;;;;;;;0.70;0.70;;;29.40;48.00;;;;;;5071724;28;20036;-85
2022/07/18 11:29:16;;;;;;;1.55;0.95;;;29.40;48.00;;;;;;5052632;28;20021;-82
2022/07/18 11:31:53;;;;;;;0.98;0.80;;;29.50;48.10;;;;;;5070424;28;20035;-84
2022/07/18 11:34:20;;;;;;;1.20;0.90;;;29.60;48.20;;;;;;5088050;28;20052;-87
2022/07/18 11:36:47;;;;;;;0.70;0.70;;;29.60;48.20;;;;;;5072293;28;20097;-81
2022/07/18 11:39:14;;;;;;;1.15;0.80;;;29.70;48.30;;;;;;5075268;28;20035;-84
2022/07/18 11:41:40;;;;;;;0.82;0.82;;;29.80;48.50;;;;;;5071668;28;20369;-87
2022/07/18 11:44:17;;;;;;;0.80;0.80;;;29.80;48.50;;;;;;5076403;28;20039;-82
2022/07/18 11:46:44;;;;;;;1.20;0.70;;;29.80;48.70;;;;;;5073515;28;20039;-83
2022/07/18 11:49:09;;;;;;;1.02;0.90;;;29.90;48.80;;;;;;5071270;28;20928;-81
2022/07/18 11:51:40;;;;;;;0.75;0.75;;;29.90;48.90;;;;;;5072561;28;20108;-81
2022/07/18 11:54:07;;;;;;;0.85;0.63;;;30.00;49.20;;;;;;5063196;28;20340;-82
2022/07/18 11:56:33;;;;;;;1.02;0.90;;;30.00;49.30;;;;;;5065691;28;20032;-81
2022/07/18 11:58:58;;;;;;;0.65;0.63;;;30.10;49.50;;;;;;5079778;28;20048;-80
2022/07/18 12:01:33;;;;;;;0.88;0.73;;;30.10;49.50;;;;;;5071440;28;20036;-81
2022/07/18 12:03:59;;;;;;;0.82;0.73;;;30.10;49.60;;;;;;5073029;28;20033;-81
2022/07/18 12:06:27;;;;;;;0.85;0.80;;;30.20;49.70;;;;;;5072689;28;20031;-81
2022/07/18 12:09:02;;;;;;;0.88;0.75;;;30.20;49.70;;;;;;5071828;28;20033;-83
2022/07/18 12:11:32;;;;;;;1.10;0.73;;;30.30;49.80;;;;;;5065235;28;20032;-81
2022/07/18 12:14:06;;;;;;;0.70;0.65;;;30.30;50.00;;;;;;5054273;28;20107;-84
2022/07/18 12:16:36;;;;;;;2.10;0.95;;;30.30;50.00;;;;;;5071078;28;20056;-81
2022/07/18 12:19:08;;;;;;;1.20;0.80;;;30.40;50.10;;;;;;5072971;28;20387;-83
2022/07/18 12:22:03;;;;;;;2.03;0.80;;;30.40;50.10;;;;;;5070822;28;20020;-85
2022/07/18 12:24:49;;;;;;;1.52;0.75;;;30.40;50.00;;;;;;5065677;28;20401;-82
2022/07/18 12:27:20;;;;;;;0.88;0.82;;;30.40;50.10;;;;;;5071423;28;20032;-81
2022/07/18 12:30:19;;;;;;;1.02;0.93;;;30.50;50.20;;;;;;5070820;28;20120;-82
2022/07/18 12:32:52;;;;;;;0.65;0.60;;;30.50;50.20;;;;;;5069821;28;20033;-83
2022/07/18 12:35:31;;;;;;;0.70;0.70;;;30.60;50.10;;;;;;5070882;28;20017;-82
2022/07/18 12:38:01;;;;;;;0.95;0.85;;;30.50;50.00;;;;;;5053912;28;20069;-82
2022/07/18 12:40:38;;;;;;;0.70;0.70;;;30.60;50.00;;;;;;5074604;28;20094;-85
2022/07/18 12:43:07;;;;;;;1.35;0.90;;;30.60;49.90;;;;;;5070232;28;20111;-82
2022/07/18 12:45:33;;;;;;;1.20;0.90;;;30.60;49.70;;;;;;5067221;28;20024;-84
2022/07/18 12:47:58;;;;;;;2.10;1.10;;;30.60;49.50;;;;;;5070746;28;20111;-86
2022/07/18 12:50:24;;;;;;;1.83;1.10;;;30.70;49.50;;;;;;5064432;28;20382;-83
2022/07/18 12:52:50;;;;;;;1.35;1.10;;;30.70;49.30;;;;;;5052752;28;20400;-83
2022/07/18 12:55:17;;;;;;;2.70;1.25;;;30.70;49.10;;;;;;5049885;28;20122;-83
2022/07/18 12:57:43;;;;;;;0.88;0.82;;;30.70;49.00;;;;;;5066553;28;20457;-83
2022/07/18 13:00:10;;;;;;;1.30;1.00;;;30.70;48.90;;;;;;5062033;28;20044;-83